createdAt,value
2022-11-10T00:00:43.741Z,10.08
2022-11-10T00:05:51.804Z,10.06
2022-11-10T00:11:01.903Z,9.99
2022-11-10T00:16:24.984Z,9.99
2022-11-10T00:21:33.231Z,10.00
2022-11-10T00:26:41.115Z,10.03
2022-11-10T00:31:51.679Z,10.01
2022-11-10T00:36:59.894Z,10.03
2022-11-10T00:42:08.396Z,9.98
2022-11-10T00:47:18.808Z,9.97
2022-11-10T00:52:26.763Z,9.98
2022-11-10T00:57:34.661Z,9.94
2022-11-10T01:02:45.353Z,9.88
2022-11-10T01:07:53.562Z,9.87
2022-11-10T01:13:01.563Z,9.85
2022-11-10T01:18:12.411Z,9.85
2022-11-10T01:23:20.817Z,9.84
2022-11-10T01:28:29.371Z,9.82
2022-11-10T01:33:40.359Z,9.77
2022-11-10T01:38:48.514Z,9.72
2022-11-10T01:43:58.320Z,9.71
2022-11-10T01:49:09.612Z,9.70
2022-11-10T01:54:21.774Z,9.70
2022-11-10T01:59:31.598Z,9.72
2022-11-10T02:04:44.205Z,9.72
2022-11-10T02:09:52.656Z,9.74
2022-11-10T02:15:00.453Z,9.74
2022-11-10T02:20:12.682Z,9.73
2022-11-10T02:25:24.300Z,9.69
2022-11-10T02:30:31.975Z,9.66
2022-11-10T02:35:40.101Z,9.62
2022-11-10T02:40:51.334Z,9.59
2022-11-10T02:46:00.899Z,9.56
2022-11-10T02:51:08.819Z,9.54
2022-11-10T02:56:19.335Z,9.55
2022-11-10T03:01:27.592Z,9.56
2022-11-10T03:06:36.091Z,9.57
2022-11-10T03:11:47.251Z,9.53
2022-11-10T03:16:55.210Z,9.54
2022-11-10T03:22:03.712Z,9.54
2022-11-10T03:27:14.730Z,9.56
2022-11-10T03:32:22.886Z,9.54
2022-11-10T03:37:31.031Z,9.52
2022-11-10T03:42:43.752Z,9.55
2022-11-10T03:47:52.111Z,9.51
2022-11-10T03:53:00.106Z,9.50
2022-11-10T03:58:10.487Z,9.50
2022-11-10T04:03:20.439Z,9.50
2022-11-10T04:08:46.856Z,9.53
2022-11-10T04:14:10.096Z,9.51
2022-11-10T04:19:18.320Z,9.52
2022-11-10T04:24:26.280Z,9.56
2022-11-10T04:29:37.247Z,9.54
2022-11-10T04:34:45.399Z,9.51
2022-11-10T04:39:53.493Z,9.53
2022-11-10T04:45:04.233Z,9.49
2022-11-10T04:50:12.730Z,9.46
2022-11-10T04:55:20.655Z,9.43
2022-11-10T05:00:31.861Z,9.37
2022-11-10T05:05:39.877Z,9.36
2022-11-10T05:10:48.069Z,9.35
2022-11-10T05:15:58.890Z,9.32
2022-11-10T05:21:07.251Z,9.30
2022-11-10T05:26:15.920Z,9.29
2022-11-10T05:31:26.814Z,9.26
2022-11-10T05:36:34.734Z,9.28
2022-11-10T05:41:42.767Z,9.28
2022-11-10T05:46:53.332Z,9.33
2022-11-10T05:52:01.247Z,9.36
2022-11-10T05:57:09.784Z,9.39
2022-11-10T06:02:20.198Z,9.42
2022-11-10T06:07:27.901Z,9.42
2022-11-10T06:12:35.935Z,9.41
2022-11-10T06:17:46.929Z,9.37
2022-11-10T06:23:02.392Z,9.37
2022-11-10T06:28:11.876Z,9.36
2022-11-10T06:33:23.662Z,9.37
2022-11-10T06:38:31.779Z,9.39
2022-11-10T06:43:40.015Z,9.41
2022-11-10T06:48:50.927Z,9.44
2022-11-10T06:53:58.712Z,9.50
2022-11-10T06:59:07.110Z,9.56
2022-11-10T07:04:20.156Z,9.62
2022-11-10T07:09:28.374Z,9.70
2022-11-10T07:14:37.911Z,9.74
2022-11-10T07:19:48.493Z,9.77
2022-11-10T07:24:56.350Z,9.82
2022-11-10T07:30:04.419Z,9.86
2022-11-10T07:35:14.830Z,9.88
2022-11-10T07:40:22.748Z,9.98
2022-11-10T07:45:31.158Z,10.05
2022-11-10T07:50:41.514Z,10.12
2022-11-10T07:55:49.611Z,10.18
2022-11-10T08:00:57.405Z,10.25
2022-11-10T08:06:08.550Z,10.35
2022-11-10T08:11:16.386Z,10.43
2022-11-10T08:16:24.208Z,10.54
2022-11-10T08:21:34.970Z,10.67
2022-11-10T08:26:43.374Z,10.83
2022-11-10T08:31:51.671Z,10.97
2022-11-10T08:37:02.303Z,11.11
2022-11-10T08:42:10.254Z,11.18
2022-11-10T08:47:18.375Z,11.21
2022-11-10T08:52:29.135Z,11.27
2022-11-10T08:57:37.287Z,11.31
2022-11-10T09:02:45.414Z,11.33
2022-11-10T09:07:55.875Z,11.44
2022-11-10T09:13:04.112Z,11.52
2022-11-10T09:18:14.203Z,11.62
2022-11-10T09:23:26.462Z,11.94
2022-11-10T09:28:34.763Z,12.18
2022-11-10T09:33:42.891Z,12.75
2022-11-10T09:38:54.051Z,13.10
2022-11-10T09:44:08.656Z,13.41
2022-11-10T09:49:26.234Z,13.69
2022-11-10T09:54:41.677Z,13.98
2022-11-10T09:59:50.230Z,14.14
2022-11-10T10:05:09.783Z,14.27
2022-11-10T10:10:23.940Z,14.26
2022-11-10T10:15:36.232Z,14.28
2022-11-10T10:20:48.732Z,14.45
2022-11-10T10:25:59.604Z,14.53
2022-11-10T10:31:15.227Z,14.34
2022-11-10T10:36:25.779Z,14.35
2022-11-10T10:41:39.380Z,14.45
2022-11-10T10:46:48.671Z,14.33
2022-11-10T10:52:05.434Z,14.23
2022-11-10T10:57:23.623Z,14.20
2022-11-10T11:02:33.033Z,14.25
2022-11-10T11:07:41.557Z,14.24
2022-11-10T11:12:52.452Z,14.12
2022-11-10T11:18:02.559Z,14.07
2022-11-10T11:23:19.751Z,14.05
2022-11-10T11:28:37.164Z,14.10
2022-11-10T11:33:47.603Z,14.23
2022-11-10T11:39:01.099Z,14.32
2022-11-10T11:44:29.354Z,14.38
2022-11-10T11:49:52.542Z,14.35
2022-11-10T11:55:12.642Z,14.26
2022-11-10T12:00:24.619Z,14.24
2022-11-10T12:05:36.682Z,14.25
2022-11-10T12:10:51.363Z,14.23
2022-11-10T12:16:04.596Z,14.22
2022-11-10T12:21:23.467Z,14.28
2022-11-10T12:26:38.903Z,14.37
2022-11-10T12:31:51.249Z,14.41
2022-11-10T12:37:00.563Z,14.42
2022-11-10T12:42:13.362Z,14.47
2022-11-10T12:47:25.617Z,14.49
2022-11-10T12:52:36.781Z,14.51
2022-11-10T12:57:45.414Z,14.57
2022-11-10T13:02:57.263Z,14.73
2022-11-10T13:08:17.790Z,14.89
2022-11-10T13:13:27.620Z,15.07
2022-11-10T13:19:05.660Z,15.11
2022-11-10T13:24:26.493Z,15.03
2022-11-10T13:29:36.357Z,14.93
2022-11-10T13:34:44.629Z,14.89
2022-11-10T13:39:55.723Z,14.79
2022-11-10T13:45:19.256Z,14.76
2022-11-10T13:50:32.811Z,14.69
2022-11-10T13:55:56.276Z,14.63
2022-11-10T14:01:22.110Z,14.61
2022-11-10T14:06:43.173Z,14.83
2022-11-10T14:11:53.210Z,15.07
2022-11-10T14:17:01.016Z,15.23
2022-11-10T14:22:20.239Z,15.17
2022-11-10T14:27:29.252Z,15.05
2022-11-10T14:32:38.368Z,14.89
2022-11-10T14:37:49.633Z,14.74
2022-11-10T14:43:00.912Z,14.62
2022-11-10T14:48:19.456Z,14.51
2022-11-10T14:53:32.127Z,14.45
2022-11-10T14:58:41.405Z,14.38
2022-11-10T15:03:56.732Z,14.30
2022-11-10T15:09:21.664Z,14.22
2022-11-10T15:14:39.599Z,14.12
2022-11-10T15:19:58.529Z,14.02
2022-11-10T15:25:16.481Z,13.92
2022-11-10T15:30:26.118Z,13.82
2022-11-10T15:35:37.057Z,13.75
2022-11-10T15:40:54.889Z,13.60
2022-11-10T15:46:03.750Z,13.57
2022-11-10T15:51:13.542Z,13.48
2022-11-10T15:56:24.946Z,13.39
2022-11-10T16:01:33.765Z,13.28
2022-11-10T16:06:43.113Z,13.18
2022-11-10T16:11:53.657Z,13.10
2022-11-10T16:17:02.971Z,13.01
2022-11-10T16:22:12.538Z,12.94
2022-11-10T16:27:23.355Z,12.89
2022-11-10T16:32:35.917Z,12.84
2022-11-10T16:37:47.427Z,12.81
2022-11-10T16:42:58.336Z,12.78
2022-11-10T16:48:09.974Z,12.74
2022-11-10T16:53:18.840Z,12.70
2022-11-10T16:58:29.674Z,12.65
2022-11-10T17:03:39.443Z,12.59
2022-11-10T17:08:49.690Z,12.54
2022-11-10T17:14:00.445Z,12.50
2022-11-10T17:19:10.199Z,12.44
2022-11-10T17:24:19.204Z,12.38
2022-11-10T17:29:29.757Z,12.31
2022-11-10T17:34:38.282Z,12.25
2022-11-10T17:39:46.621Z,12.18
2022-11-10T17:44:57.204Z,12.13
2022-11-10T17:50:05.111Z,12.08
2022-11-10T17:55:17.540Z,12.02
2022-11-10T18:00:33.914Z,11.97
2022-11-10T18:05:41.824Z,11.90
2022-11-10T18:10:54.052Z,11.84
2022-11-10T18:16:04.898Z,11.78
2022-11-10T18:21:12.976Z,11.73
2022-11-10T18:26:20.926Z,11.63
2022-11-10T18:31:36.988Z,11.57
2022-11-10T18:36:45.170Z,11.52
2022-11-10T18:41:53.001Z,11.50
2022-11-10T18:47:03.928Z,11.49
2022-11-10T18:52:12.174Z,11.48
2022-11-10T18:57:21.340Z,11.46
2022-11-10T19:02:32.029Z,11.44
2022-11-10T19:07:39.967Z,11.43
2022-11-10T19:12:48.044Z,11.38
2022-11-10T19:17:58.721Z,11.35
2022-11-10T19:23:07.019Z,11.36
2022-11-10T19:28:16.290Z,11.35
2022-11-10T19:33:27.053Z,11.33
2022-11-10T19:38:36.034Z,11.29
2022-11-10T19:43:47.775Z,11.24
2022-11-10T19:48:58.585Z,11.20
2022-11-10T19:54:09.020Z,11.13
2022-11-10T19:59:19.277Z,11.09
2022-11-10T20:04:29.953Z,11.02
2022-11-10T20:09:38.034Z,10.96
2022-11-10T20:14:45.979Z,10.92
2022-11-10T20:19:56.504Z,10.87
2022-11-10T20:25:04.972Z,10.89
2022-11-10T20:30:13.354Z,10.88
2022-11-10T20:35:24.086Z,10.86
2022-11-10T20:40:43.947Z,10.86
2022-11-10T20:45:54.955Z,10.82
2022-11-10T20:51:10.876Z,10.79
2022-11-10T20:56:19.323Z,10.76
2022-11-10T21:01:27.930Z,10.74
2022-11-10T21:06:39.072Z,10.73
2022-11-10T21:11:59.363Z,10.75
2022-11-10T21:17:07.408Z,10.76
2022-11-10T21:22:18.058Z,10.68
2022-11-10T21:27:25.942Z,10.65
2022-11-10T21:32:37.655Z,10.65
2022-11-10T21:37:48.546Z,10.62
2022-11-10T21:42:56.958Z,10.59
2022-11-10T21:48:05.368Z,10.58
2022-11-10T21:53:16.328Z,10.58
2022-11-10T21:58:23.933Z,10.58
2022-11-10T22:03:32.168Z,10.60
2022-11-10T22:08:43.490Z,10.65
2022-11-10T22:14:04.226Z,10.64
2022-11-10T22:19:12.229Z,10.65
2022-11-10T22:24:29.342Z,10.65
2022-11-10T22:29:37.631Z,10.62
2022-11-10T22:34:45.532Z,10.57
2022-11-10T22:40:08.667Z,10.53
2022-11-10T22:45:17.125Z,10.50
2022-11-10T22:50:25.062Z,10.47
2022-11-10T22:55:36.090Z,10.45
2022-11-10T23:00:44.213Z,10.42
2022-11-10T23:05:56.210Z,10.42
2022-11-10T23:11:09.047Z,10.41
2022-11-10T23:16:18.083Z,10.42
2022-11-10T23:21:28.357Z,10.45
2022-11-10T23:26:38.974Z,10.46
2022-11-10T23:31:46.972Z,10.51
2022-11-10T23:36:55.058Z,10.50
2022-11-10T23:42:05.732Z,10.50
2022-11-10T23:47:13.705Z,10.52
2022-11-10T23:52:22.415Z,10.52
2022-11-10T23:57:33.117Z,10.52
